• Join FlightAware (Why Join?)
  • Login
  • US Flag 
08:31AM EDT


 

Airport Tracker/Info


-or-


 

Live Flight TrackerFlight Track Log ✈ DAL1214 ✈ 23-Jun-2013 ✈ KCLT - KATL

Flight Track Log - Related Links

Times and Time Zones

All times are in EDT time to prevent confusion due to time zone crossing. See the DAL1214 flight status page for this flight to view local times or setup timezone preferences in your user account.

Time Position Orientation Groundspeed Altitude Reporting Facility
EDT Latitude Longitude Course Direction KTS MPH feet Rate Location/Type
10:17AM 35.1956 -80.9533 270° West 162 186 1,400  Level Atlanta Center
10:18AM 35.1600 -80.9519 178° South 187 215 2,300 1,740 Climbing Atlanta Center
10:19AM 35.1039 -80.9669 192° South 263 303 4,000 2,760 Climbing Atlanta Center
10:20AM 35.2659 -81.2118 282° West  Level FlightAware Approximate
10:20AM 35.1000 -81.0608 267° West 271 312 7,200  Level Atlanta Center
10:21AM 35.2167 -81.3332 242° Southwest  Level FlightAware Approximate
10:21AM 35.1064 -81.1469 275° West 289 333 8,700  Level Atlanta Center
10:22AM 35.1586 -81.4495 239° Southwest  Level FlightAware Approximate
10:22AM 35.1292 -81.2300 289° West 289 333 10,800  Level Atlanta Center
10:23AM 35.1334 -81.5772 270° West  Level FlightAware Approximate
10:23AM 35.1358 -81.3417 274° West 317 365 12,800  Level Atlanta Center
10:24AM 35.1425 -81.4608 274° West 344 396 15,500 2,460 Climbing Atlanta Center
10:25AM 35.1408 -81.5803 269° West 356 410 17,800 2,100 Climbing Atlanta Center
10:26AM 35.1308 -81.7125 265° West 363 418 19,700 1,080 Climbing Atlanta Center
10:27AM 35.1228 -81.8397 266° West 373 429 20,000 120 Climbing Atlanta Center
10:28AM 35.1122 -81.9619 264° West 368 423 20,000 420 Level Atlanta Center
10:29AM 35.1039 -82.0814 265° West 368 423 20,900 960 Climbing Atlanta Center
10:30AM 35.0933 -82.2086 264° West 373 429 22,000 540 Climbing Atlanta Center
10:31AM 35.0678 -82.3283 255° West 373 429 22,000  Level Atlanta Center
10:32AM 35.0214 -82.4486 245° Southwest 374 430 22,000  Level Atlanta Center
10:33AM 34.9750 -82.5636 244° Southwest 379 436 22,000  Level Atlanta Center
10:34AM 34.9283 -82.6783 244° Southwest 398 458 22,000  Level Atlanta Center
10:35AM 34.8564 -82.7908 232° Southwest 418 481 22,000  Level Atlanta Center
10:36AM 34.7803 -82.8983 229° Southwest 425 489 22,000  Level Atlanta Center
10:37AM 34.6997 -83.0003 226° Southwest 425 489 22,000  Level Atlanta Center
10:38AM 34.6236 -83.1097 230° Southwest 425 489 22,000  Level Atlanta Center
10:39AM 34.5367 -83.2294 229° Southwest 420 483 22,000  Level Atlanta Center
10:40AM 34.4581 -83.3358 228° Southwest 430 495 22,000 -300 Level Atlanta Center
10:41AM 34.3814 -83.4397 228° Southwest 430 495 21,400 -1,020 Descending Atlanta Center
10:42AM 34.3108 -83.5358 228° Southwest 403 464 20,000 -1,740 Descending Atlanta Center
10:43AM 34.2444 -83.6292 229° Southwest 380 437 18,000 -2,040 Descending Atlanta Center
10:44AM 34.1778 -83.7175 228° Southwest 364 419 16,000 -1,980 Descending Atlanta Center
10:45AM 34.1156 -83.8031 229° Southwest 359 413 14,100 -1,020 Descending Atlanta Center
10:46AM 34.0489 -83.8833 225° Southwest 354 407 14,000 -540 Descending Atlanta Center
10:46AM 34.0000 -83.9333 220° Southwest 339 390 13,200 -960 Descending Atlanta TRACON
10:47AM 33.9333 -84.0167 226° Southwest 334 384 12,400 -600 Descending Atlanta TRACON
10:48AM 33.8667 -84.0833 220° Southwest 332 382 12,000 -240 Descending Atlanta TRACON
10:49AM 33.7833 -84.1500 214° Southwest 334 384 12,000  Level Atlanta TRACON
10:50AM 33.7333 -84.2333 234° Southwest 313 360 12,000 -300 Level Atlanta TRACON
10:51AM 33.7333 -84.3167 270° West 286 329 11,500 -1,260 Descending Atlanta TRACON
10:52AM 33.7333 -84.4167 270° West 296 341 9,700 -1,920 Descending Atlanta TRACON
10:53AM 33.7333 -84.5000 270° West 288 331 7,900 -1,980 Descending Atlanta TRACON
10:54AM 33.7333 -84.5833 270° West 280 322 6,000 -1,500 Descending Atlanta TRACON
10:55AM 33.7333 -84.6833 270° West 278 320 5,000 -540 Descending Atlanta TRACON
10:56AM 33.7333 -84.7667 270° West 279 321 5,000  Level Atlanta TRACON
10:57AM 33.7333 -84.8667 270° West 276 318 5,000  Level Atlanta TRACON
10:58AM 33.6833 -84.9000 209° Southwest 242 278 5,100  Climbing Atlanta TRACON
10:59AM 33.6500 -84.8333 121° Southeast 223 257 5,100 -60 Level Atlanta TRACON
11:00AM 33.6500 -84.7833 90° East 225 259 5,000 -60 Descending Atlanta TRACON
11:01AM 33.6500 -84.7000 90° East 222 255 5,000 -420 Level Atlanta TRACON
11:02AM 33.6500 -84.6333 90° East 223 257 4,200 -1,020 Descending Atlanta TRACON
11:03AM 33.6500 -84.5667 90° East 190 219 3,000 -1,200 Descending Atlanta TRACON